createdAt,value
2023-03-18T00:00:11.379Z,95786.69
2023-03-18T00:02:40.173Z,95782.00
2023-03-18T00:05:10.545Z,95775.00
2023-03-18T00:07:38.152Z,95775.09
2023-03-18T00:10:07.556Z,95781.38
2023-03-18T00:12:35.283Z,95781.41
2023-03-18T00:15:02.789Z,95783.47
2023-03-18T00:17:30.254Z,95789.78
2023-03-18T00:19:57.738Z,95790.00
2023-03-18T00:22:26.592Z,95790.84
2023-03-18T00:24:54.776Z,95790.84
2023-03-18T00:27:22.523Z,95791.63
2023-03-18T00:29:50.545Z,95800.28
2023-03-18T00:32:18.126Z,95799.13
2023-03-18T00:34:46.450Z,95792.50
2023-03-18T00:37:18.879Z,95805.41
2023-03-18T00:39:47.793Z,95797.78
2023-03-18T00:42:15.739Z,95807.25
2023-03-18T00:44:44.068Z,95807.25
2023-03-18T00:47:11.616Z,95808.00
2023-03-18T00:49:39.312Z,95809.94
2023-03-18T00:52:07.435Z,95811.06
2023-03-18T00:54:35.776Z,95812.59
2023-03-18T00:57:05.415Z,95813.56
2023-03-18T00:59:33.171Z,95812.50
2023-03-18T01:02:00.697Z,95812.75
2023-03-18T01:04:28.977Z,95815.28
2023-03-18T01:06:57.108Z,95808.06
2023-03-18T01:09:24.876Z,95807.09
2023-03-18T01:11:52.919Z,95806.41
2023-03-18T01:14:21.863Z,95812.78
2023-03-18T01:16:49.589Z,95817.38
2023-03-18T01:19:17.143Z,95809.03
2023-03-18T01:21:44.933Z,95814.59
2023-03-18T01:24:13.114Z,95818.72
2023-03-18T01:26:40.629Z,95815.53
2023-03-18T01:29:08.128Z,95821.38
2023-03-18T01:31:37.700Z,95821.94
2023-03-18T01:34:05.656Z,95818.91
2023-03-18T01:36:33.301Z,95818.59
2023-03-18T01:39:00.863Z,95816.38
2023-03-18T01:41:28.711Z,95826.63
2023-03-18T01:43:56.389Z,95825.81
2023-03-18T01:46:40.612Z,95821.91
2023-03-18T01:49:12.711Z,95825.38
2023-03-18T01:51:42.968Z,95820.97
2023-03-18T01:54:12.828Z,95826.63
2023-03-18T01:56:43.959Z,95828.28
2023-03-18T01:59:12.260Z,95829.53
2023-03-18T02:01:46.613Z,95828.72
2023-03-18T02:06:41.143Z,95833.53
2023-03-18T02:09:09.345Z,95831.88
2023-03-18T02:11:39.668Z,95835.31
2023-03-18T02:14:09.603Z,95834.50
2023-03-18T02:16:47.346Z,95835.47
2023-03-18T02:19:27.380Z,95834.09
2023-03-18T02:22:02.082Z,95838.78
2023-03-18T02:24:39.170Z,95841.00
2023-03-18T02:27:16.975Z,95850.00
2023-03-18T02:29:45.362Z,95847.88
2023-03-18T02:32:14.824Z,95844.44
2023-03-18T02:34:43.912Z,95850.66
2023-03-18T02:37:11.449Z,95852.19
2023-03-18T02:39:39.081Z,95848.56
2023-03-18T02:42:07.051Z,95847.78
2023-03-18T02:44:41.211Z,95854.13
2023-03-18T02:47:12.262Z,95850.69
2023-03-18T02:49:39.742Z,95849.03
2023-03-18T02:52:07.580Z,95852.19
2023-03-18T02:54:35.042Z,95849.56
2023-03-18T02:57:02.873Z,95846.25
2023-03-18T02:59:32.325Z,95836.00
2023-03-18T03:02:02.051Z,95840.69
2023-03-18T03:04:30.511Z,95847.88
2023-03-18T03:07:01.404Z,95842.09
2023-03-18T03:09:28.923Z,95855.38
2023-03-18T03:11:56.392Z,95857.84
2023-03-18T03:14:23.921Z,95862.63
2023-03-18T03:16:51.833Z,95865.31
2023-03-18T03:19:20.680Z,95857.44
2023-03-18T03:21:48.395Z,95866.88
2023-03-18T03:24:16.323Z,95869.19
2023-03-18T03:26:43.801Z,95868.34
2023-03-18T03:29:12.561Z,95873.34
2023-03-18T03:31:40.483Z,95877.50
2023-03-18T03:34:08.295Z,95879.44
2023-03-18T03:36:37.210Z,95877.09
2023-03-18T03:39:06.095Z,95880.00
2023-03-18T03:41:33.916Z,95884.97
2023-03-18T03:44:01.394Z,95880.28
2023-03-18T03:46:28.892Z,95886.63
2023-03-18T03:48:56.355Z,95886.09
2023-03-18T03:51:23.925Z,95891.34
2023-03-18T03:53:52.749Z,95892.19
2023-03-18T03:56:20.327Z,95892.19
2023-03-18T03:58:47.868Z,95886.63
2023-03-18T04:01:15.419Z,95884.97
2023-03-18T04:03:42.894Z,95887.03
2023-03-18T04:06:11.103Z,95892.16
2023-03-18T04:08:38.601Z,95883.03
2023-03-18T04:11:07.515Z,95880.28
2023-03-18T04:13:34.987Z,95889.97
2023-03-18T04:16:02.497Z,95890.91
2023-03-18T04:18:29.949Z,95896.84
2023-03-18T04:20:57.509Z,95902.44
2023-03-18T04:23:25.627Z,95900.03
2023-03-18T04:25:53.365Z,95898.81
2023-03-18T04:28:22.184Z,95900.97
2023-03-18T04:30:50.513Z,95902.94
2023-03-18T04:33:18.033Z,95897.16
2023-03-18T04:35:45.555Z,95903.00
2023-03-18T04:38:13.121Z,95900.78
2023-03-18T04:40:40.865Z,95898.28
2023-03-18T04:43:09.921Z,95904.38
2023-03-18T04:45:38.825Z,95902.59
2023-03-18T04:48:06.828Z,95906.56
2023-03-18T04:50:34.361Z,95901.91
2023-03-18T04:53:01.870Z,95903.44
2023-03-18T04:55:29.442Z,95907.31
2023-03-18T04:57:56.954Z,95902.28
2023-03-18T05:00:24.834Z,95900.66
2023-03-18T05:02:53.651Z,95899.66
2023-03-18T05:05:21.212Z,95900.66
2023-03-18T05:07:48.700Z,95908.00
2023-03-18T05:10:16.507Z,95907.69
2023-03-18T05:12:44.162Z,95908.00
2023-03-18T05:15:13.071Z,95904.22
2023-03-18T05:17:41.262Z,95905.22
2023-03-18T05:20:13.315Z,95901.78
2023-03-18T05:22:41.095Z,95904.41
2023-03-18T05:25:11.053Z,95902.75
2023-03-18T05:27:38.585Z,95907.16
2023-03-18T05:30:07.165Z,95910.19
2023-03-18T05:32:34.725Z,95909.25
2023-03-18T05:35:03.715Z,95904.69
2023-03-18T05:37:32.773Z,95908.41
2023-03-18T05:40:00.237Z,95903.59
2023-03-18T05:42:28.072Z,95911.88
2023-03-18T05:44:56.930Z,95896.66
2023-03-18T05:47:24.518Z,95901.91
2023-03-18T05:49:52.002Z,95902.44
2023-03-18T05:52:19.448Z,95907.16
2023-03-18T05:54:48.271Z,95903.75
2023-03-18T05:57:15.748Z,95906.22
2023-03-18T05:59:43.806Z,95899.22
2023-03-18T06:02:11.695Z,95897.94
2023-03-18T06:04:40.085Z,95906.75
2023-03-18T06:07:07.578Z,95913.34
2023-03-18T06:09:35.106Z,95913.72
2023-03-18T06:12:05.408Z,95921.16
2023-03-18T06:14:32.871Z,95920.84
2023-03-18T06:17:00.400Z,95925.31
2023-03-18T06:19:30.629Z,95925.44
2023-03-18T06:21:58.743Z,95921.47
2023-03-18T06:24:26.417Z,95927.34
2023-03-18T06:26:54.370Z,95924.41
2023-03-18T06:29:23.174Z,95925.91
2023-03-18T06:31:50.770Z,95926.88
2023-03-18T06:34:19.071Z,95927.25
2023-03-18T06:36:46.562Z,95924.59
2023-03-18T06:39:14.321Z,95932.78
2023-03-18T06:41:41.800Z,95940.50
2023-03-18T06:44:09.280Z,95937.50
2023-03-18T06:46:38.173Z,95937.53
2023-03-18T06:49:05.674Z,95943.16
2023-03-18T06:51:33.559Z,95940.53
2023-03-18T06:54:01.465Z,95942.88
2023-03-18T06:56:28.919Z,95953.78
2023-03-18T06:58:56.367Z,95953.16
2023-03-18T07:01:23.826Z,95953.31
2023-03-18T07:03:52.695Z,95963.13
2023-03-18T07:06:20.172Z,95955.72
2023-03-18T07:08:47.606Z,95957.06
2023-03-18T07:11:15.120Z,95952.31
2023-03-18T07:13:42.570Z,95954.53
2023-03-18T07:16:10.643Z,95954.19
2023-03-18T07:18:38.562Z,95965.69
2023-03-18T07:21:07.763Z,95957.84
2023-03-18T07:23:35.237Z,95961.38
2023-03-18T07:26:02.897Z,95960.81
2023-03-18T07:28:30.376Z,95969.34
2023-03-18T07:30:57.916Z,95970.06
2023-03-18T07:33:25.853Z,95967.47
2023-03-18T07:35:53.350Z,95965.00
2023-03-18T07:38:22.166Z,95962.69
2023-03-18T07:40:49.613Z,95964.16
2023-03-18T07:43:17.293Z,95968.53
2023-03-18T07:45:45.253Z,95975.00
2023-03-18T07:48:12.717Z,95977.47
2023-03-18T07:50:40.838Z,95971.22
2023-03-18T07:53:08.402Z,95982.53
2023-03-18T07:55:37.198Z,95982.00
2023-03-18T07:58:05.397Z,95985.09
2023-03-18T08:00:33.400Z,95983.69
2023-03-18T08:03:00.853Z,95972.75
2023-03-18T08:05:28.542Z,95972.09
2023-03-18T08:07:56.196Z,95976.19
2023-03-18T08:10:25.210Z,95979.66
2023-03-18T08:12:54.210Z,95973.63
2023-03-18T08:15:22.302Z,95977.69
2023-03-18T08:17:49.858Z,95974.66
2023-03-18T08:20:17.540Z,95983.03
2023-03-18T08:22:45.922Z,95981.63
2023-03-18T08:25:13.490Z,95993.09
2023-03-18T08:27:41.039Z,95996.34
2023-03-18T08:30:11.225Z,95990.06
2023-03-18T08:32:38.984Z,95985.94
2023-03-18T08:35:07.479Z,95991.53
2023-03-18T08:37:35.805Z,95995.44
2023-03-18T08:40:03.686Z,95992.72
2023-03-18T08:42:31.131Z,96001.06
2023-03-18T08:44:58.627Z,95996.13
2023-03-18T08:47:29.382Z,95994.53
2023-03-18T08:49:57.656Z,95996.59
2023-03-18T08:52:25.495Z,95988.34
2023-03-18T08:54:53.006Z,95990.66
2023-03-18T08:57:20.733Z,95992.72
2023-03-18T08:59:48.194Z,95994.81
2023-03-18T09:02:18.312Z,95994.13
2023-03-18T09:04:48.133Z,95993.06
2023-03-18T09:07:18.849Z,95987.03
2023-03-18T09:09:46.571Z,95983.69
2023-03-18T09:12:14.969Z,95987.88
2023-03-18T09:14:43.538Z,95987.41
2023-03-18T09:17:11.227Z,95986.97
2023-03-18T09:19:38.732Z,95989.78
2023-03-18T09:22:08.826Z,95990.75
2023-03-18T09:24:36.276Z,95998.66
2023-03-18T09:27:03.780Z,96000.16
2023-03-18T09:29:31.894Z,96003.34
2023-03-18T09:32:00.539Z,95997.09
2023-03-18T09:34:28.123Z,95990.84
2023-03-18T09:36:55.586Z,95985.22
2023-03-18T09:39:24.410Z,95985.22
2023-03-18T09:42:08.328Z,95987.50
2023-03-18T09:44:37.377Z,95985.63
2023-03-18T09:47:24.543Z,95987.50
2023-03-18T09:50:22.336Z,95988.91
2023-03-18T09:52:56.706Z,95992.59
2023-03-18T09:55:31.048Z,95993.13
2023-03-18T09:58:03.301Z,95987.81
2023-03-18T10:00:34.433Z,95985.19
2023-03-18T10:03:06.643Z,95984.81
2023-03-18T10:05:38.010Z,95987.44
2023-03-18T10:08:14.183Z,95996.41
2023-03-18T10:10:46.815Z,95987.31
2023-03-18T10:13:22.573Z,95986.28
2023-03-18T10:15:53.933Z,95986.91
2023-03-18T10:18:27.839Z,95978.19
2023-03-18T10:21:12.230Z,95978.94
2023-03-18T10:23:52.413Z,95980.03
2023-03-18T10:26:27.946Z,95979.22
2023-03-18T10:29:19.155Z,95972.78
2023-03-18T10:32:00.638Z,95976.63
2023-03-18T10:34:34.846Z,95979.47
2023-03-18T10:37:07.718Z,95973.81
2023-03-18T10:39:37.893Z,95976.91
2023-03-18T10:42:20.544Z,95973.19
2023-03-18T10:44:48.719Z,95975.25
2023-03-18T10:47:21.037Z,95966.03
2023-03-18T10:49:59.396Z,95961.03
2023-03-18T10:52:34.640Z,95960.28
2023-03-18T10:55:02.127Z,95967.03
2023-03-18T10:57:32.513Z,95952.72
2023-03-18T10:59:59.949Z,95959.56
2023-03-18T11:02:34.155Z,95950.78
2023-03-18T11:05:05.451Z,95956.38
2023-03-18T11:07:33.236Z,95954.41
2023-03-18T11:10:13.959Z,95955.16
2023-03-18T11:12:43.452Z,95954.47
2023-03-18T11:15:12.797Z,95946.19
2023-03-18T11:17:40.769Z,95938.81
2023-03-18T11:20:22.001Z,95935.66
2023-03-18T11:22:52.126Z,95934.97
2023-03-18T11:25:24.001Z,95928.13
2023-03-18T11:27:58.072Z,95935.34
2023-03-18T11:30:34.465Z,95930.59
2023-03-18T11:33:06.999Z,95925.28
2023-03-18T11:35:40.670Z,95928.00
2023-03-18T11:38:15.883Z,95927.50
2023-03-18T11:40:43.643Z,95923.75
2023-03-18T11:43:19.657Z,95924.38
2023-03-18T11:45:52.213Z,95912.88
2023-03-18T11:48:28.942Z,95909.44
2023-03-18T11:51:10.686Z,95907.38
2023-03-18T11:53:51.181Z,95906.09
2023-03-18T11:56:28.328Z,95899.47
2023-03-18T11:59:22.702Z,95903.66
2023-03-18T12:02:01.271Z,95897.38
2023-03-18T12:04:46.224Z,95896.63
2023-03-18T12:07:27.314Z,95894.16
2023-03-18T12:10:04.279Z,95889.78
2023-03-18T12:12:49.630Z,95897.66
2023-03-18T12:15:31.528Z,95887.84
2023-03-18T12:18:07.355Z,95887.06
2023-03-18T12:20:49.232Z,95878.16
2023-03-18T12:23:43.705Z,95879.94
2023-03-18T12:26:16.634Z,95877.50
2023-03-18T12:29:09.464Z,95863.44
2023-03-18T12:31:54.539Z,95868.00
2023-03-18T12:34:35.810Z,95862.06
2023-03-18T12:37:18.777Z,95866.22
2023-03-18T12:40:18.587Z,95859.34
2023-03-18T12:43:03.250Z,95852.78
2023-03-18T12:45:36.620Z,95848.50
2023-03-18T12:48:11.049Z,95847.72
2023-03-18T12:50:42.375Z,95849.38
2023-03-18T12:53:16.737Z,95843.94
2023-03-18T12:55:47.883Z,95842.41
2023-03-18T12:58:19.045Z,95842.81
2023-03-18T13:00:52.216Z,95847.47
2023-03-18T13:03:32.186Z,95848.69
2023-03-18T13:06:04.583Z,95847.63
2023-03-18T13:08:50.631Z,95848.69
2023-03-18T13:11:37.469Z,95849.88
2023-03-18T13:14:12.155Z,95855.75
2023-03-18T13:16:41.151Z,95848.63
2023-03-18T13:19:11.782Z,95857.91
2023-03-18T13:21:44.224Z,95855.28
2023-03-18T13:24:32.779Z,95858.47
2023-03-18T13:27:26.613Z,95854.59
2023-03-18T13:30:02.756Z,95850.50
2023-03-18T13:32:54.060Z,95850.38
2023-03-18T13:35:44.835Z,95850.00
2023-03-18T13:38:29.088Z,95848.38
2023-03-18T13:41:14.845Z,95856.25
2023-03-18T13:43:49.069Z,95848.75
2023-03-18T13:46:20.948Z,95843.84
2023-03-18T13:48:50.038Z,95841.66
2023-03-18T13:51:49.265Z,95842.72
2023-03-18T13:54:20.649Z,95840.03
2023-03-18T13:56:52.716Z,95845.94
2023-03-18T13:59:48.462Z,95837.84
2023-03-18T14:02:43.606Z,95842.16
2023-03-18T14:05:36.848Z,95830.97
2023-03-18T14:08:07.086Z,95811.72
2023-03-18T14:10:36.366Z,95809.00
2023-03-18T14:13:27.415Z,95811.97
2023-03-18T14:15:57.366Z,95808.56
2023-03-18T14:18:28.111Z,95812.75
2023-03-18T14:21:01.361Z,95813.69
2023-03-18T14:23:42.878Z,95810.81
2023-03-18T14:26:23.381Z,95810.63
2023-03-18T14:28:56.006Z,95803.63
2023-03-18T14:31:33.336Z,95816.88
2023-03-18T14:34:20.731Z,95815.69
2023-03-18T14:37:18.713Z,95812.53
2023-03-18T14:39:49.154Z,95813.91
2023-03-18T14:42:29.661Z,95812.34
2023-03-18T14:45:04.550Z,95813.50
2023-03-18T14:47:42.393Z,95808.81
2023-03-18T14:50:17.015Z,95802.41
2023-03-18T14:52:49.397Z,95805.28
2023-03-18T14:55:20.592Z,95805.13
2023-03-18T14:57:49.440Z,95797.84
2023-03-18T15:00:18.323Z,95791.69
2023-03-18T15:02:46.590Z,95790.75
2023-03-18T15:05:18.763Z,95790.41
2023-03-18T15:07:52.710Z,95790.38
2023-03-18T15:10:21.930Z,95797.31
2023-03-18T15:13:00.960Z,95794.78
2023-03-18T15:15:28.438Z,95789.19
2023-03-18T15:17:55.915Z,95795.03
2023-03-18T15:20:24.120Z,95790.91
2023-03-18T15:22:52.766Z,95798.75
2023-03-18T15:25:22.957Z,95801.63
2023-03-18T15:27:51.381Z,95790.34
2023-03-18T15:30:29.075Z,95797.59
2023-03-18T15:33:04.545Z,95792.00
2023-03-18T15:35:32.736Z,95801.09
2023-03-18T15:38:08.107Z,95802.97
2023-03-18T15:40:37.938Z,95796.13
2023-03-18T15:43:17.729Z,95795.31
2023-03-18T15:45:48.691Z,95791.09
2023-03-18T15:48:24.571Z,95798.59
2023-03-18T15:50:56.870Z,95792.75
2023-03-18T15:53:26.820Z,95794.97
2023-03-18T15:55:56.354Z,95796.47
2023-03-18T15:58:27.292Z,95787.47
2023-03-18T16:00:57.742Z,95787.47
2023-03-18T16:03:27.149Z,95785.81
2023-03-18T16:05:55.135Z,95796.81
2023-03-18T16:08:23.643Z,95800.06
2023-03-18T16:10:54.574Z,95803.09
2023-03-18T16:13:24.534Z,95791.88
2023-03-18T16:15:53.136Z,95798.59
2023-03-18T16:18:22.071Z,95796.72
2023-03-18T16:20:50.315Z,95800.34
2023-03-18T16:23:19.086Z,95805.63
2023-03-18T16:25:48.780Z,95809.22
2023-03-18T16:28:20.616Z,95815.16
2023-03-18T16:30:49.500Z,95814.56
2023-03-18T16:33:18.932Z,95820.06
2023-03-18T16:35:58.438Z,95821.59
2023-03-18T16:38:28.372Z,95817.31
2023-03-18T16:40:57.478Z,95824.56
2023-03-18T16:43:27.247Z,95823.00
2023-03-18T16:45:58.426Z,95818.63
2023-03-18T16:48:27.692Z,95817.19
2023-03-18T16:50:57.887Z,95831.34
2023-03-18T16:53:27.606Z,95832.34
2023-03-18T16:55:58.262Z,95834.44
2023-03-18T16:58:29.729Z,95833.31
2023-03-18T17:00:57.888Z,95831.97
2023-03-18T17:03:25.402Z,95832.00
2023-03-18T17:05:53.774Z,95833.25
2023-03-18T17:08:23.023Z,95829.25
2023-03-18T17:10:52.565Z,95828.28
2023-03-18T17:13:23.285Z,95839.81
2023-03-18T17:15:52.068Z,95827.69
2023-03-18T17:18:21.717Z,95846.22
2023-03-18T17:20:49.935Z,95836.31
2023-03-18T17:23:19.524Z,95843.31
2023-03-18T17:25:53.709Z,95838.31
2023-03-18T17:28:34.355Z,95836.16
2023-03-18T17:31:02.150Z,95834.06
2023-03-18T17:33:31.906Z,95839.56
2023-03-18T17:36:01.551Z,95847.72
2023-03-18T17:38:30.660Z,95842.50
2023-03-18T17:41:00.272Z,95841.63
2023-03-18T17:43:30.212Z,95839.44
2023-03-18T17:45:58.819Z,95852.75
2023-03-18T17:48:28.542Z,95843.88
2023-03-18T17:50:58.266Z,95845.97
2023-03-18T17:53:28.678Z,95842.03
2023-03-18T17:55:57.097Z,95844.84
2023-03-18T17:58:27.586Z,95847.94
2023-03-18T18:00:57.857Z,95842.94
2023-03-18T18:03:27.724Z,95850.88
2023-03-18T18:05:56.283Z,95847.97
2023-03-18T18:08:25.979Z,95854.09
2023-03-18T18:10:55.630Z,95856.44
2023-03-18T18:13:23.894Z,95854.75
2023-03-18T18:15:52.771Z,95848.91
2023-03-18T18:18:25.366Z,95855.31
2023-03-18T18:20:55.687Z,95849.38
2023-03-18T18:23:35.405Z,95854.53
2023-03-18T18:26:04.971Z,95848.13
2023-03-18T18:28:34.619Z,95852.81
2023-03-18T18:31:05.376Z,95853.38
2023-03-18T18:33:34.529Z,95849.72
2023-03-18T18:36:02.775Z,95866.94
2023-03-18T18:38:30.765Z,95864.53
2023-03-18T18:41:00.029Z,95868.59
2023-03-18T18:43:27.861Z,95870.25
2023-03-18T18:45:57.494Z,95871.09
2023-03-18T18:48:30.333Z,95865.03
2023-03-18T18:50:58.517Z,95863.72
2023-03-18T18:53:27.849Z,95856.50
2023-03-18T18:55:57.616Z,95858.00
2023-03-18T18:58:29.464Z,95857.91
2023-03-18T19:00:57.693Z,95856.09
2023-03-18T19:03:31.003Z,95852.47
2023-03-18T19:05:59.677Z,95849.50
2023-03-18T19:08:31.390Z,95852.63
2023-03-18T19:11:00.910Z,95846.94
2023-03-18T19:13:30.624Z,95849.47
2023-03-18T19:16:00.745Z,95847.94
2023-03-18T19:18:35.752Z,95848.34
2023-03-18T19:21:03.201Z,95840.69
2023-03-18T19:23:33.162Z,95837.06
2023-03-18T19:26:01.569Z,95837.38
2023-03-18T19:28:47.858Z,95840.88
2023-03-18T19:31:20.596Z,95837.66
2023-03-18T19:33:51.590Z,95843.34
2023-03-18T19:36:25.158Z,95839.94
2023-03-18T19:38:53.520Z,95842.88
2023-03-18T19:41:21.572Z,95838.00
2023-03-18T19:43:49.546Z,95835.56
2023-03-18T19:46:18.817Z,95836.69
2023-03-18T19:48:47.003Z,95831.53
2023-03-18T19:51:16.587Z,95842.47
2023-03-18T19:53:45.198Z,95846.47
2023-03-18T19:56:25.126Z,95851.63
2023-03-18T19:58:54.008Z,95855.09
2023-03-18T20:01:22.007Z,95856.06
2023-03-18T20:03:50.121Z,95852.75
2023-03-18T20:06:18.912Z,95862.72
2023-03-18T20:08:46.571Z,95860.38
2023-03-18T20:11:15.470Z,95868.50
2023-03-18T20:13:44.105Z,95867.03
2023-03-18T20:16:14.608Z,95869.94
2023-03-18T20:18:42.751Z,95872.31
2023-03-18T20:21:18.573Z,95866.19
2023-03-18T20:23:47.504Z,95879.09
2023-03-18T20:26:15.665Z,95877.28
2023-03-18T20:28:45.454Z,95875.63
2023-03-18T20:31:14.352Z,95883.25
2023-03-18T20:33:41.881Z,95882.25
2023-03-18T20:36:16.217Z,95882.25
2023-03-18T20:38:45.983Z,95883.56
2023-03-18T20:41:17.869Z,95878.28
2023-03-18T20:43:45.577Z,95879.09
2023-03-18T20:46:15.570Z,95877.13
2023-03-18T20:48:44.190Z,95885.22
2023-03-18T20:51:21.101Z,95881.88
2023-03-18T20:53:49.298Z,95882.25
2023-03-18T20:56:19.352Z,95888.84
2023-03-18T20:58:46.851Z,95882.91
2023-03-18T21:01:14.980Z,95887.38
2023-03-18T21:03:42.894Z,95887.88
2023-03-18T21:06:13.916Z,95877.28
2023-03-18T21:08:42.007Z,95885.91
2023-03-18T21:11:20.963Z,95881.25
2023-03-18T21:13:48.920Z,95890.34
2023-03-18T21:16:18.261Z,95877.78
2023-03-18T21:18:46.392Z,95869.66
2023-03-18T21:21:20.560Z,95885.25
2023-03-18T21:23:48.205Z,95882.25
2023-03-18T21:26:15.933Z,95879.59
2023-03-18T21:28:44.754Z,95886.53
2023-03-18T21:31:23.859Z,95889.16
2023-03-18T21:33:51.446Z,95892.47
2023-03-18T21:36:18.969Z,95894.81
2023-03-18T21:38:46.929Z,95886.69
2023-03-18T21:41:22.074Z,95889.81
2023-03-18T21:43:51.499Z,95881.88
2023-03-18T21:46:21.161Z,95878.56
2023-03-18T21:48:48.976Z,95884.69
2023-03-18T21:51:37.471Z,95883.50
2023-03-18T21:54:06.210Z,95885.47
2023-03-18T21:56:33.859Z,95878.91
2023-03-18T21:59:02.654Z,95870.75
2023-03-18T22:01:32.218Z,95874.16
2023-03-18T22:03:59.990Z,95878.19
2023-03-18T22:06:27.492Z,95875.06
2023-03-18T22:08:56.723Z,95870.25
2023-03-18T22:11:24.184Z,95877.41
2023-03-18T22:13:51.704Z,95881.19
2023-03-18T22:16:20.594Z,95874.91
2023-03-18T22:18:48.198Z,95881.38
2023-03-18T22:21:19.914Z,95883.22
2023-03-18T22:23:47.430Z,95882.53
2023-03-18T22:26:16.683Z,95888.50
2023-03-18T22:28:44.592Z,95880.72
2023-03-18T22:31:20.767Z,95892.41
2023-03-18T22:33:48.413Z,95894.06
2023-03-18T22:36:17.272Z,95890.94
2023-03-18T22:38:45.807Z,95890.28
2023-03-18T22:41:20.988Z,95894.91
2023-03-18T22:43:48.825Z,95892.38
2023-03-18T22:46:16.584Z,95890.72
2023-03-18T22:48:45.523Z,95886.09
2023-03-18T22:51:22.887Z,95889.41
2023-03-18T22:53:52.636Z,95893.34
2023-03-18T22:56:21.152Z,95894.97
2023-03-18T22:58:48.640Z,95898.63
2023-03-18T23:01:18.560Z,95901.94
2023-03-18T23:03:47.814Z,95892.00
2023-03-18T23:06:17.537Z,95900.22
2023-03-18T23:08:46.472Z,95899.56
2023-03-18T23:11:14.982Z,95896.69
2023-03-18T23:13:43.685Z,95893.38
2023-03-18T23:16:15.261Z,95902.63
2023-03-18T23:18:42.952Z,95901.13
2023-03-18T23:21:16.667Z,95911.13
2023-03-18T23:23:44.221Z,95913.59
2023-03-18T23:26:11.796Z,95911.28
2023-03-18T23:28:44.549Z,95913.09
2023-03-18T23:31:13.339Z,95905.47
2023-03-18T23:33:40.970Z,95909.94
2023-03-18T23:36:09.258Z,95903.19
2023-03-18T23:38:38.671Z,95900.59
2023-03-18T23:41:07.048Z,95912.13
2023-03-18T23:43:34.622Z,95899.94
2023-03-18T23:46:03.611Z,95908.16
2023-03-18T23:48:31.105Z,95915.88
2023-03-18T23:50:58.620Z,95914.16
2023-03-18T23:53:26.119Z,95913.31
2023-03-18T23:55:54.914Z,95909.09
2023-03-18T23:58:22.431Z,95918.97
